Time;durP1;ratioP1;P1;durP2;ratioP2;P2;SDS_P1;SDS_P2;PMS_P1;PMS_P2;Temp;Humidity;BMP_temperature;BMP_pressure;BME280_temperature;BME280_humidity;BME280_pressure;Samples;Min_cycle;Max_cycle;Signal;HPM_P1;HPM_P2
2023/05/26 00:01:58;;;;;;;14.25;4.32;;;;;;;19.42;38.36;102741.81;16118202;19;129794;-47
2023/05/26 00:07:19;;;;;;;14.82;3.80;;;;;;;19.41;38.24;102740.13;16120818;19;132450;-43
2023/05/26 00:12:42;;;;;;;12.85;4.05;;;;;;;19.40;38.43;102746.72;16117949;19;129549;-44
2023/05/26 00:18:05;;;;;;;19.23;4.88;;;;;;;19.37;38.38;102743.28;16114829;19;130602;-40
2023/05/26 00:23:27;;;;;;;12.70;3.72;;;;;;;19.38;38.36;102749.72;16117356;19;130018;-43
2023/05/26 00:28:49;;;;;;;13.68;3.92;;;;;;;19.37;38.52;102748.84;16118261;19;131487;-44
2023/05/26 00:34:11;;;;;;;18.33;4.97;;;;;;;19.36;38.26;102751.84;16111401;19;130657;-44
2023/05/26 00:39:33;;;;;;;16.80;3.83;;;;;;;19.35;38.27;102759.28;16119156;19;129459;-41
2023/05/26 00:44:55;;;;;;;13.30;4.07;;;;;;;19.33;38.32;102758.63;16113992;19;132006;-40
2023/05/26 00:50:17;;;;;;;15.15;4.13;;;;;;;19.32;38.24;102758.84;16111502;19;129607;-44
2023/05/26 00:55:39;;;;;;;16.08;4.68;;;;;;;19.31;38.24;102758.00;16107166;19;130091;-42
2023/05/26 01:01:01;;;;;;;16.92;4.53;;;;;;;19.31;38.11;102762.69;16115207;19;130035;-40
2023/05/26 01:06:24;;;;;;;13.95;3.78;;;;;;;19.31;37.90;102758.00;16118559;19;130803;-42
2023/05/26 01:12:03;;;;;;;16.25;4.50;;;;;;;19.32;38.24;102759.69;16114015;19;130031;-41
2023/05/26 01:18:03;;;;;;;15.65;4.00;;;;;;;19.30;37.91;102756.28;16114141;19;130102;-41
2023/05/26 01:23:38;;;;;;;13.20;4.07;;;;;;;19.27;38.29;102762.25;16114770;19;130321;-46
2023/05/26 01:29:08;;;;;;;10.95;3.38;;;;;;;19.27;37.79;102755.84;16112283;19;129600;-44
2023/05/26 01:34:30;;;;;;;16.45;4.40;;;;;;;19.24;37.97;102762.66;16113251;19;129976;-45
2023/05/26 01:39:52;;;;;;;13.43;4.10;;;;;;;19.23;37.85;102766.50;16111624;19;129430;-44
2023/05/26 01:45:21;;;;;;;14.73;4.00;;;;;;;19.24;38.13;102761.81;16103415;19;129566;-41
2023/05/26 01:50:54;;;;;;;14.48;3.90;;;;;;;19.23;37.62;102760.94;16106988;19;130196;-45
2023/05/26 01:56:18;;;;;;;12.23;3.47;;;;;;;19.21;37.84;102765.84;16107238;19;130939;-42
2023/05/26 02:01:40;;;;;;;14.38;4.03;;;;;;;19.20;37.88;102756.63;16108521;19;129869;-41
2023/05/26 02:07:05;;;;;;;13.82;3.97;;;;;;;19.19;38.07;102767.94;16111014;19;129469;-40
2023/05/26 02:12:27;;;;;;;14.50;4.40;;;;;;;19.19;38.16;102770.72;16110168;19;130527;-40
2023/05/26 02:17:49;;;;;;;14.80;4.13;;;;;;;19.18;38.08;102769.00;16104963;19;130005;-43
2023/05/26 02:23:11;;;;;;;9.82;3.58;;;;;;;19.17;37.80;102770.91;16109027;19;129758;-43
2023/05/26 02:28:33;;;;;;;13.32;3.97;;;;;;;19.15;37.82;102773.03;16109990;19;129124;-44
2023/05/26 02:33:55;;;;;;;13.43;4.07;;;;;;;19.15;37.58;102775.81;16110842;19;130767;-42
2023/05/26 02:39:17;;;;;;;13.73;3.65;;;;;;;19.14;37.77;102778.78;16109134;19;129271;-45
2023/05/26 02:44:39;;;;;;;16.65;4.45;;;;;;;19.13;37.92;102779.84;16108011;19;132086;-41
2023/05/26 02:50:01;;;;;;;12.70;3.30;;;;;;;19.11;37.49;102777.28;16107706;19;130054;-43
2023/05/26 02:55:24;;;;;;;15.23;3.53;;;;;;;19.12;37.92;102780.91;16106267;19;130809;-40
2023/05/26 03:00:46;;;;;;;13.63;3.85;;;;;;;19.11;37.93;102784.75;16117973;19;130848;-40
2023/05/26 03:06:08;;;;;;;13.98;3.95;;;;;;;19.10;37.75;102783.03;16124223;19;129712;-43
2023/05/26 03:11:30;;;;;;;14.60;4.25;;;;;;;19.08;37.70;102792.41;16114082;19;129670;-41
2023/05/26 03:16:52;;;;;;;15.38;3.90;;;;;;;19.08;37.59;102791.56;16125027;19;129391;-44
2023/05/26 03:22:14;;;;;;;15.70;4.05;;;;;;;19.07;37.84;102796.28;16118036;19;130528;-40
2023/05/26 03:27:56;;;;;;;15.15;4.40;;;;;;;19.05;37.70;102798.38;16119449;19;129134;-41
2023/05/26 03:33:18;;;;;;;10.70;3.60;;;;;;;19.05;37.55;102798.38;16119586;19;129802;-41
2023/05/26 03:38:40;;;;;;;12.98;3.80;;;;;;;19.03;37.42;102794.09;16118218;19;130436;-42
2023/05/26 03:44:02;;;;;;;10.25;3.70;;;;;;;19.03;37.85;102800.50;16114621;19;130254;-43
2023/05/26 03:49:24;;;;;;;16.20;3.97;;;;;;;19.01;37.90;102810.94;16117001;19;129334;-41
2023/05/26 03:54:46;;;;;;;13.18;3.63;;;;;;;19.01;37.66;102816.50;16121202;19;131127;-44
2023/05/26 04:00:10;;;;;;;13.15;3.50;;;;;;;19.01;37.40;102816.50;16116271;19;131257;-41
2023/05/26 04:05:32;;;;;;;12.32;3.53;;;;;;;19.00;37.72;102817.53;16117418;19;129896;-43
2023/05/26 04:10:57;;;;;;;13.95;3.88;;;;;;;19.00;37.49;102831.41;16119643;19;130215;-43
2023/05/26 04:16:19;;;;;;;14.70;3.95;;;;;;;18.97;37.81;102831.81;16113408;19;131444;-44
2023/05/26 04:21:41;;;;;;;12.95;3.80;;;;;;;18.96;37.47;102826.47;16115842;19;130489;-42
2023/05/26 04:27:03;;;;;;;14.35;3.67;;;;;;;18.94;37.55;102835.00;16117317;19;131139;-41
2023/05/26 04:32:25;;;;;;;12.45;3.60;;;;;;;18.94;37.26;102840.56;16115500;19;131663;-41
2023/05/26 04:37:48;;;;;;;16.83;4.47;;;;;;;;;;16116239;19;130966;-41
2023/05/26 04:43:10;;;;;;;18.65;4.18;;;;;;;18.94;37.44;102839.69;16112393;19;129428;-44
2023/05/26 04:48:32;;;;;;;16.83;4.13;;;;;;;18.99;37.23;102851.03;16099245;19;132121;-42
2023/05/26 04:53:54;;;;;;;17.15;4.20;;;;;;;19.04;37.21;102849.38;16115374;19;129186;-44
2023/05/26 04:59:17;;;;;;;20.60;4.22;;;;;;;19.08;37.18;102853.44;16110694;19;130186;-43
2023/05/26 05:04:42;;;;;;;17.15;3.55;;;;;;;19.13;36.96;102854.75;16116772;19;130455;-44
2023/05/26 05:10:04;;;;;;;22.50;4.37;;;;;;;19.19;37.18;102865.91;16114809;19;131047;-41
2023/05/26 05:15:26;;;;;;;17.10;3.97;;;;;;;19.26;36.95;102865.97;16112378;19;130571;-44
2023/05/26 05:20:48;;;;;;;20.52;4.72;;;;;;;19.31;37.03;102859.81;16113033;19;130070;-44
2023/05/26 05:26:11;;;;;;;14.98;4.18;;;;;;;19.35;36.68;102852.81;16110776;19;129516;-44
2023/05/26 05:31:33;;;;;;;16.20;3.92;;;;;;;19.38;36.99;102853.25;16110706;19;129436;-42
2023/05/26 05:36:55;;;;;;;21.23;5.20;;;;;;;19.42;36.53;102864.78;16110144;19;130280;-43
2023/05/26 05:42:17;;;;;;;17.50;4.15;;;;;;;19.48;36.55;102864.00;16102128;19;130283;-40
2023/05/26 05:47:39;;;;;;;22.20;5.25;;;;;;;19.53;36.44;102880.03;16105142;19;129346;-40
2023/05/26 05:53:00;;;;;;;17.20;4.47;;;;;;;19.57;36.45;102884.09;16110958;19;129687;-40
2023/05/26 05:58:22;;;;;;;19.42;5.03;;;;;;;19.61;36.00;102888.19;16114283;19;130593;-42
2023/05/26 06:03:44;;;;;;;16.70;4.18;;;;;;;19.66;36.20;102894.00;16110779;19;129459;-42
2023/05/26 06:09:07;;;;;;;16.10;4.03;;;;;;;19.72;36.02;102899.75;16113985;19;130903;-40
2023/05/26 06:14:29;;;;;;;13.88;4.00;;;;;;;19.74;36.38;102903.19;16113550;19;130304;-42
2023/05/26 06:19:51;;;;;;;14.20;4.15;;;;;;;19.73;36.16;102907.03;16112585;19;130901;-43
2023/05/26 06:25:13;;;;;;;19.08;4.47;;;;;;;19.74;36.29;102905.97;16107057;19;129878;-41
2023/05/26 06:30:35;;;;;;;14.73;3.85;;;;;;;19.77;36.01;102908.34;16106004;19;131000;-41
2023/05/26 06:35:57;;;;;;;18.67;4.22;;;;;;;19.78;35.90;102902.56;16118511;19;132053;-42
2023/05/26 06:41:19;;;;;;;16.95;4.50;;;;;;;19.77;35.99;102914.75;16117640;19;131880;-40
2023/05/26 06:46:40;;;;;;;17.13;4.82;;;;;;;19.80;36.10;102913.50;16123913;19;129632;-41
2023/05/26 06:52:03;;;;;;;14.10;4.35;;;;;;;19.80;36.01;102907.94;16123200;19;129416;-43
2023/05/26 06:57:24;;;;;;;15.82;4.00;;;;;;;19.80;35.76;102916.28;16128224;19;135087;-40
2023/05/26 07:02:46;;;;;;;15.57;4.07;;;;;;;19.80;35.81;102930.16;16122892;19;129480;-45
2023/05/26 07:08:08;;;;;;;17.58;4.65;;;;;;;19.80;35.62;102922.69;16114918;19;131572;-41
2023/05/26 07:13:30;;;;;;;16.95;4.50;;;;;;;19.80;35.54;102919.06;16117155;19;129360;-40
2023/05/26 07:18:52;;;;;;;14.45;4.45;;;;;;;19.82;35.32;102920.56;16118856;19;131018;-40
2023/05/26 07:24:14;;;;;;;17.02;4.28;;;;;;;19.85;35.71;102913.72;16115413;19;129932;-43
2023/05/26 07:29:37;;;;;;;13.95;3.90;;;;;;;19.89;35.60;102922.50;16112811;19;130827;-41
2023/05/26 07:34:59;;;;;;;22.00;4.80;;;;;;;19.86;35.51;102915.44;16118640;19;130285;-40
2023/05/26 07:40:21;;;;;;;19.38;5.03;;;;;;;19.86;35.52;102918.22;16115741;19;131355;-42
2023/05/26 07:45:43;;;;;;;22.92;5.03;;;;;;;19.87;35.81;102919.94;16113630;19;129632;-46
2023/05/26 07:51:05;;;;;;;17.00;4.50;;;;;;;19.86;35.86;102917.38;16117036;19;130559;-41
2023/05/26 07:56:27;;;;;;;18.88;4.18;;;;;;;19.86;35.81;102921.00;16114548;19;130659;-42
2023/05/26 08:01:49;;;;;;;17.27;4.50;;;;;;;19.87;35.60;102922.72;16117670;19;135454;-42
2023/05/26 08:07:11;;;;;;;18.88;4.70;;;;;;;19.90;35.65;102913.09;16116197;19;129693;-41
2023/05/26 08:12:33;;;;;;;22.83;5.47;;;;;;;19.92;35.41;102909.06;16116135;19;129243;-45
2023/05/26 08:17:55;;;;;;;21.77;4.88;;;;;;;19.95;35.29;102914.19;16116549;19;130461;-41
2023/05/26 08:23:19;;;;;;;24.38;4.85;;;;;;;19.99;35.10;102911.88;16115009;19;131154;-43
2023/05/26 08:28:41;;;;;;;20.70;4.50;;;;;;;20.01;35.46;102901.41;16113663;19;129866;-40
2023/05/26 08:34:03;;;;;;;18.63;5.30;;;;;;;20.03;35.08;102913.19;16106241;19;130480;-44
2023/05/26 08:39:24;;;;;;;22.48;4.85;;;;;;;20.07;35.33;102914.50;16114454;19;134689;-41
2023/05/26 08:44:47;;;;;;;19.20;4.97;;;;;;;20.09;35.57;102917.94;16119140;19;130583;-47
2023/05/26 08:50:10;;;;;;;17.90;4.47;;;;;;;20.13;35.48;102916.44;16114647;19;130396;-40
2023/05/26 08:55:33;;;;;;;18.30;4.35;;;;;;;20.14;35.11;102906.19;16112890;19;129576;-40
2023/05/26 09:00:55;;;;;;;18.23;4.72;;;;;;;20.16;35.07;102919.88;16115240;19;130761;-39
2023/05/26 09:06:21;;;;;;;17.02;4.82;;;;;;;20.17;35.04;102911.34;16116700;19;130981;-44
2023/05/26 09:11:44;;;;;;;22.23;4.65;;;;;;;20.17;35.25;102905.78;16113897;19;129339;-39
2023/05/26 09:17:17;;;;;;;19.83;4.78;;;;;;;20.18;35.13;102923.28;16114647;19;129806;-39
2023/05/26 09:22:39;;;;;;;17.70;4.10;;;;;;;20.18;35.04;102913.06;16107209;19;131755;-40
2023/05/26 09:28:06;;;;;;;18.63;4.40;;;;;;;20.18;35.10;102912.19;16106931;19;129438;-41
2023/05/26 09:33:28;;;;;;;16.33;4.22;;;;;;;20.17;35.09;102907.69;16112689;19;131442;-41
2023/05/26 09:38:52;;;;;;;16.15;4.68;;;;;;;20.16;35.18;102906.84;16112787;19;132118;-40
2023/05/26 09:44:15;;;;;;;17.90;4.97;;;;;;;20.16;35.22;102904.06;16110962;19;129201;-42
2023/05/26 09:49:37;;;;;;;18.20;4.32;;;;;;;20.14;35.40;102900.63;16105430;19;129984;-40
2023/05/26 09:55:00;;;;;;;18.98;4.55;;;;;;;20.12;35.34;102899.97;16108687;19;130180;-44
2023/05/26 10:00:25;;;;;;;18.67;4.65;;;;;;;20.11;35.47;102895.47;16101555;19;130254;-39
2023/05/26 10:05:50;;;;;;;16.45;4.53;;;;;;;20.10;35.32;102893.75;16109459;19;131510;-41
2023/05/26 10:11:13;;;;;;;17.65;4.47;;;;;;;20.06;35.63;102901.66;16122436;19;129490;-41
2023/05/26 10:16:37;;;;;;;14.95;4.10;;;;;;;20.05;36.04;102888.00;16128642;19;129535;-41
2023/05/26 10:22:06;;;;;;;19.30;4.75;;;;;;;20.04;35.76;102886.28;16126763;19;131223;-40
2023/05/26 10:27:41;;;;;;;16.67;4.50;;;;;;;20.01;36.20;102889.47;16122416;19;131438;-42
2023/05/26 10:33:10;;;;;;;17.45;4.05;;;;;;;20.01;35.74;102895.88;16119666;19;131370;-42
2023/05/26 10:38:37;;;;;;;17.13;4.88;;;;;;;20.01;36.01;102892.25;16123035;19;129309;-39
2023/05/26 10:44:00;;;;;;;14.73;4.10;;;;;;;19.99;35.89;102886.88;16125866;19;129657;-39
2023/05/26 10:49:23;;;;;;;15.07;3.70;;;;;;;19.99;35.79;102878.53;16125872;19;129473;-41
2023/05/26 10:54:47;;;;;;;12.93;3.50;;;;;;;19.99;35.99;102875.75;16127320;19;129400;-43
2023/05/26 11:00:25;;;;;;;17.15;4.10;;;;;;;20.01;36.26;102868.09;16126999;19;129633;-41
2023/05/26 11:05:54;;;;;;;13.18;3.75;;;;;;;20.01;36.12;102862.53;16124218;19;131391;-42
2023/05/26 11:11:28;;;;;;;12.43;3.78;;;;;;;20.01;36.19;102862.53;16120985;19;129668;-40
2023/05/26 11:16:50;;;;;;;15.98;3.78;;;;;;;20.01;36.27;102861.69;16122042;19;132594;-41
2023/05/26 11:22:15;;;;;;;13.50;3.30;;;;;;;20.00;36.04;102858.03;16120898;19;129764;-40
2023/05/26 11:27:45;;;;;;;11.40;3.42;;;;;;;20.03;35.92;102854.00;16119240;19;131352;-40
2023/05/26 11:33:12;;;;;;;15.38;3.63;;;;;;;20.02;35.95;102841.16;16120629;19;129844;-39
2023/05/26 11:38:36;;;;;;;9.73;3.33;;;;;;;20.00;36.00;102846.91;16119980;19;130681;-42
2023/05/26 11:43:58;;;;;;;13.55;4.00;;;;;;;19.99;35.71;102837.75;16121391;19;131572;-39
2023/05/26 11:49:20;;;;;;;11.63;3.08;;;;;;;20.01;35.78;102850.56;16121133;19;129600;-43
2023/05/26 11:54:42;;;;;;;13.55;3.45;;;;;;;20.01;35.63;102833.91;16121209;19;129871;-40
2023/05/26 12:00:09;;;;;;;11.73;3.38;;;;;;;20.00;35.57;102827.47;16119077;19;130187;-40
2023/05/26 12:05:31;;;;;;;14.80;3.72;;;;;;;20.00;35.44;102833.03;16119662;19;129670;-41
2023/05/26 12:10:52;;;;;;;14.98;3.38;;;;;;;20.00;35.43;102824.69;16119221;19;129466;-44
2023/05/26 12:16:32;;;;;;;12.48;3.47;;;;;;;20.02;35.44;102830.06;16115078;19;130214;-41
2023/05/26 12:22:02;;;;;;;12.43;3.47;;;;;;;19.98;35.41;102827.66;16119009;19;129470;-41
2023/05/26 12:27:35;;;;;;;10.25;3.03;;;;;;;20.00;35.08;102821.91;16116213;19;130180;-39
2023/05/26 12:32:57;;;;;;;13.60;2.60;;;;;;;19.98;35.01;102808.22;16116168;19;130746;-39
2023/05/26 12:38:21;;;;;;;11.63;3.40;;;;;;;19.99;35.10;102814.66;16114818;19;130994;-39
2023/05/26 12:43:43;;;;;;;12.85;3.45;;;;;;;20.01;34.90;102820.00;16114357;19;129976;-40
2023/05/26 12:49:07;;;;;;;10.38;3.30;;;;;;;19.99;35.04;102801.63;16113031;19;132140;-39
2023/05/26 12:54:29;;;;;;;11.38;3.25;;;;;;;19.98;35.12;102808.22;16116702;19;131433;-40
2023/05/26 12:59:51;;;;;;;15.20;3.40;;;;;;;19.98;35.17;102808.22;16113653;19;129313;-39
2023/05/26 13:05:16;;;;;;;10.30;3.40;;;;;;;19.97;34.67;102806.50;16115233;19;131000;-39
2023/05/26 13:10:38;;;;;;;10.27;3.13;;;;;;;19.97;34.96;102795.38;16115392;19;130039;-42
2023/05/26 13:16:00;;;;;;;13.35;3.42;;;;;;;19.97;34.36;102814.84;16113937;19;129909;-41
2023/05/26 13:21:37;;;;;;;9.00;2.88;;;;;;;19.97;34.13;102792.59;16117466;19;130604;-40
2023/05/26 13:26:59;;;;;;;11.70;2.85;;;;;;;19.97;34.08;102784.28;16111093;19;129985;-39
2023/05/26 13:32:21;;;;;;;9.70;2.83;;;;;;;19.97;34.35;102772.31;16118166;19;130964;-42
2023/05/26 13:37:43;;;;;;;12.13;3.40;;;;;;;19.96;34.46;102777.00;16114475;19;129675;-40
2023/05/26 13:43:05;;;;;;;10.45;3.00;;;;;;;19.97;34.00;102777.88;16110709;19;129872;-40
2023/05/26 13:48:27;;;;;;;8.98;3.08;;;;;;;19.96;34.11;102768.66;16106032;19;129631;-39
2023/05/26 13:53:49;;;;;;;11.43;2.53;;;;;;;19.96;34.11;102779.78;16111997;19;133504;-39
2023/05/26 13:59:11;;;;;;;9.13;2.72;;;;;;;19.95;33.72;102774.44;16106929;19;130648;-39
2023/05/26 14:04:33;;;;;;;17.27;3.20;;;;;;;19.93;33.54;102760.78;16109512;19;131292;-39
2023/05/26 14:09:56;;;;;;;13.75;3.00;;;;;;;19.94;33.89;102754.13;16110775;19;129412;-39
2023/05/26 14:15:18;;;;;;;13.27;3.13;;;;;;;19.95;33.35;102758.63;16110605;19;129972;-40
2023/05/26 14:20:41;;;;;;;12.23;3.20;;;;;;;19.95;33.37;102757.78;16106569;19;132231;-39
2023/05/26 14:26:23;;;;;;;24.98;3.28;;;;;;;19.94;33.77;102756.91;16111169;19;131308;-39
2023/05/26 14:31:45;;;;;;;13.25;3.30;;;;;;;19.94;33.61;102756.91;16110818;19;130549;-39
2023/05/26 14:37:07;;;;;;;12.57;2.90;;;;;;;19.93;33.39;102755.22;16107227;19;130991;-41
2023/05/26 14:42:29;;;;;;;13.52;3.28;;;;;;;19.90;32.90;102747.31;16112317;19;129317;-39
2023/05/26 14:47:52;;;;;;;11.35;3.00;;;;;;;19.88;32.80;102743.88;16108222;19;129802;-39
2023/05/26 14:53:14;;;;;;;14.68;3.20;;;;;;;19.87;32.64;102733.00;16107807;19;131302;-39
2023/05/26 14:58:36;;;;;;;13.32;3.00;;;;;;;19.86;32.72;102743.22;16123254;19;129682;-39
2023/05/26 15:03:58;;;;;;;10.63;2.72;;;;;;;19.86;32.71;102734.91;16124150;19;129947;-40
2023/05/26 15:09:35;;;;;;;11.73;2.85;;;;;;;19.85;32.33;102724.84;16123462;19;133455;-38
2023/05/26 15:14:57;;;;;;;11.45;3.00;;;;;;;19.87;32.37;102738.53;16117601;19;129746;-39
2023/05/26 15:20:23;;;;;;;11.57;2.92;;;;;;;19.85;32.13;102735.97;16115684;19;130583;-40
2023/05/26 15:25:45;;;;;;;10.40;2.70;;;;;;;19.86;32.09;102737.66;16111818;19;130047;-39
2023/05/26 15:31:07;;;;;;;7.78;2.55;;;;;;;19.86;32.20;102729.34;16119411;19;129587;-39
2023/05/26 15:36:30;;;;;;;9.00;2.50;;;;;;;19.86;32.33;102729.34;16119068;19;131611;-38
2023/05/26 15:41:52;;;;;;;11.68;2.92;;;;;;;19.88;32.07;102718.03;16119854;19;129889;-41
2023/05/26 15:47:14;;;;;;;10.43;3.17;;;;;;;19.90;32.48;102721.44;16114907;19;129507;-46
2023/05/26 15:52:36;;;;;;;15.05;2.95;;;;;;;19.91;32.22;102721.25;16119253;19;131131;-42
2023/05/26 15:57:58;;;;;;;8.07;2.63;;;;;;;19.93;32.47;102730.22;16117121;19;129879;-45
2023/05/26 16:03:40;;;;;;;10.75;2.60;;;;;;;19.97;32.94;102716.75;16118695;19;129710;-44
2023/05/26 16:09:04;;;;;;;13.65;3.10;;;;;;;19.99;33.06;102715.50;16116206;19;130991;-44
2023/05/26 16:14:26;;;;;;;15.77;3.67;;;;;;;20.03;33.27;102709.53;16117613;19;129665;-43
2023/05/26 16:19:48;;;;;;;13.82;2.90;;;;;;;20.03;33.81;102713.16;16117040;19;132639;-42
2023/05/26 16:25:10;;;;;;;13.45;3.58;;;;;;;20.05;33.91;102712.97;16116281;19;135395;-43
2023/05/26 16:30:32;;;;;;;12.40;3.28;;;;;;;20.06;34.07;102704.41;16115182;19;130866;-48
2023/05/26 16:35:55;;;;;;;11.27;2.67;;;;;;;20.05;33.53;102693.50;16115352;19;129266;-46
2023/05/26 16:41:17;;;;;;;12.90;2.78;;;;;;;20.01;33.34;102698.63;16111179;19;129802;-48
2023/05/26 16:46:40;;;;;;;11.48;3.03;;;;;;;20.02;34.06;102707.81;16113181;19;130506;-47
2023/05/26 16:52:02;;;;;;;14.18;3.33;;;;;;;20.03;34.10;102710.38;16110843;19;130417;-46
2023/05/26 16:57:24;;;;;;;17.95;3.38;;;;;;;20.03;33.80;102699.25;16114544;19;131120;-51
2023/05/26 17:02:46;;;;;;;13.32;2.90;;;;;;;20.02;33.75;102702.25;16112455;19;131077;-44
2023/05/26 17:08:08;;;;;;;21.35;3.40;;;;;;;20.03;34.13;102698.41;16113741;19;129755;-46
2023/05/26 17:13:30;;;;;;;12.52;3.03;;;;;;;20.02;34.04;102697.53;16116050;19;130762;-48
2023/05/26 17:18:52;;;;;;;11.48;3.10;;;;;;;20.04;33.56;102700.13;16110599;19;134455;-42
2023/05/26 17:24:14;;;;;;;12.93;2.75;;;;;;;20.04;34.36;102697.34;16112408;19;131120;-42
2023/05/26 17:29:36;;;;;;;12.18;2.92;;;;;;;20.05;34.04;102701.84;16113639;19;130248;-44
2023/05/26 17:34:58;;;;;;;9.95;2.75;;;;;;;20.06;33.81;102689.66;16111635;19;129471;-45
2023/05/26 17:40:20;;;;;;;18.48;3.30;;;;;;;20.07;34.07;102699.69;16106258;19;129766;-42
2023/05/26 17:45:42;;;;;;;11.20;2.53;;;;;;;20.07;33.88;102708.88;16110236;19;130353;-42
2023/05/26 17:51:05;;;;;;;22.40;3.90;;;;;;;20.10;34.06;102699.25;16108754;19;130331;-45
2023/05/26 17:56:28;;;;;;;13.50;2.90;;;;;;;20.11;33.77;102701.84;16112175;19;131603;-47
2023/05/26 18:01:50;;;;;;;20.45;3.55;;;;;;;20.12;33.79;102702.69;16110545;19;133317;-49
2023/05/26 18:07:12;;;;;;;25.13;3.30;;;;;;;20.13;34.32;102709.97;16110733;19;129485;-48
2023/05/26 18:12:33;;;;;;;21.58;3.67;;;;;;;20.11;34.16;102712.09;16109401;19;129498;-44
2023/05/26 18:17:56;;;;;;;12.13;2.50;;;;;;;20.08;34.48;102705.03;16107961;19;131392;-44
2023/05/26 18:23:18;;;;;;;22.63;3.33;;;;;;;20.05;34.16;102710.19;16112631;19;130457;-45
2023/05/26 18:28:39;;;;;;;16.00;3.08;;;;;;;20.01;34.45;102706.94;16114370;19;130771;-44
2023/05/26 18:34:03;;;;;;;10.65;2.60;;;;;;;19.99;33.91;102701.63;16124709;19;129794;-45
2023/05/26 18:39:44;;;;;;;12.77;2.88;;;;;;;19.96;34.22;102704.78;16125762;19;131003;-45
2023/05/26 18:45:07;;;;;;;9.25;2.70;;;;;;;19.95;34.28;102711.41;16119293;19;130222;-46
2023/05/26 18:50:31;;;;;;;21.33;3.30;;;;;;;19.93;34.39;102718.25;16125178;19;129380;-42
2023/05/26 18:55:53;;;;;;;22.38;3.83;;;;;;;19.90;34.28;102713.97;16123309;19;130162;-44
2023/05/26 19:01:15;;;;;;;25.60;4.05;;;;;;;19.89;34.49;102715.03;16124313;19;129532;-44
2023/05/26 19:06:37;;;;;;;13.40;3.03;;;;;;;19.86;34.24;102726.56;16124000;19;130190;-46
2023/05/26 19:11:59;;;;;;;12.38;3.50;;;;;;;19.83;34.32;102719.53;16118456;19;130301;-48
2023/05/26 19:17:21;;;;;;;11.50;3.08;;;;;;;19.83;34.48;102725.06;16127812;19;129352;-47
2023/05/26 19:22:43;;;;;;;13.50;2.67;;;;;;;19.82;34.42;102719.72;16123988;19;129616;-46
2023/05/26 19:28:04;;;;;;;11.10;3.33;;;;;;;19.81;34.44;102729.13;16125494;19;134232;-48
2023/05/26 19:33:26;;;;;;;16.98;3.38;;;;;;;19.79;34.41;102734.03;16122032;19;131052;-48
2023/05/26 19:38:48;;;;;;;12.82;2.72;;;;;;;19.78;34.94;102746.22;16119455;19;130606;-46
2023/05/26 19:44:10;;;;;;;15.48;3.47;;;;;;;19.76;34.84;102743.63;16120733;19;130494;-45
2023/05/26 19:49:32;;;;;;;22.92;3.30;;;;;;;19.78;35.23;102741.50;16122221;19;129458;-46
2023/05/26 19:54:54;;;;;;;19.90;3.17;;;;;;;19.78;35.07;102751.75;16117556;19;129621;-49
2023/05/26 20:00:16;;;;;;;20.92;3.75;;;;;;;19.78;35.62;102749.84;16119498;19;131409;-42
2023/05/26 20:05:39;;;;;;;14.32;2.83;;;;;;;19.81;35.89;102762.47;16118743;19;130767;-43
2023/05/26 20:11:01;;;;;;;14.50;3.80;;;;;;;19.81;36.31;102765.25;16117696;19;129147;-45
2023/05/26 20:16:24;;;;;;;17.52;3.25;;;;;;;19.81;36.21;102771.63;16119540;19;130489;-44
2023/05/26 20:21:47;;;;;;;15.35;3.28;;;;;;;19.82;36.42;102769.69;16120384;19;131112;-42
2023/05/26 20:27:09;;;;;;;18.60;3.30;;;;;;;19.80;36.15;102769.09;16117242;19;130811;-45
2023/05/26 20:32:31;;;;;;;19.08;3.28;;;;;;;19.76;36.06;102767.78;16116559;19;130466;-43
2023/05/26 20:37:53;;;;;;;15.65;3.25;;;;;;;19.73;35.86;102763.50;16118620;19;130666;-44
2023/05/26 20:43:15;;;;;;;11.50;3.03;;;;;;;19.68;35.74;102769.69;16116271;19;131054;-46
2023/05/26 20:48:37;;;;;;;12.05;2.58;;;;;;;19.64;35.74;102771.16;16113552;19;131422;-42
2023/05/26 20:53:59;;;;;;;12.98;2.85;;;;;;;19.63;35.96;102769.44;16116238;19;129515;-44
2023/05/26 20:59:21;;;;;;;14.20;2.90;;;;;;;19.60;35.96;102780.97;16115183;19;130698;-46
2023/05/26 21:04:43;;;;;;;12.38;2.80;;;;;;;19.59;36.08;102784.78;16118015;19;129927;-43
2023/05/26 21:10:05;;;;;;;11.75;3.15;;;;;;;19.57;35.85;102780.53;16114290;19;131622;-46
2023/05/26 21:15:27;;;;;;;8.60;2.75;;;;;;;19.56;36.08;102770.47;16118337;19;130195;-43
2023/05/26 21:20:49;;;;;;;9.40;2.90;;;;;;;19.54;35.96;102781.81;16115427;19;132357;-43
2023/05/26 21:26:12;;;;;;;9.98;3.10;;;;;;;19.53;36.04;102771.75;16116542;19;130023;-45
2023/05/26 21:31:33;;;;;;;9.82;2.88;;;;;;;19.51;36.17;102779.44;16114502;19;129515;-42
2023/05/26 21:36:55;;;;;;;11.45;3.03;;;;;;;19.50;35.66;102778.59;16112079;19;129833;-50
2023/05/26 21:42:17;;;;;;;18.27;3.65;;;;;;;19.49;35.96;102781.56;16111166;19;131347;-46
2023/05/26 21:47:39;;;;;;;8.77;2.45;;;;;;;19.48;35.71;102788.16;16112093;19;129993;-47
2023/05/26 21:53:01;;;;;;;10.57;3.05;;;;;;;19.47;35.93;102789.22;16112541;19;130124;-43
2023/05/26 21:58:23;;;;;;;11.55;3.28;;;;;;;19.46;35.85;102779.19;16108980;19;131177;-44
2023/05/26 22:03:45;;;;;;;9.85;2.90;;;;;;;19.44;36.20;102776.63;16112425;19;129329;-46
2023/05/26 22:09:07;;;;;;;9.68;2.97;;;;;;;19.43;36.19;102786.03;16113220;19;129869;-43
2023/05/26 22:14:29;;;;;;;10.60;2.75;;;;;;;19.43;35.74;102793.50;16109266;19;129500;-43
2023/05/26 22:19:51;;;;;;;10.73;3.60;;;;;;;19.42;35.94;102786.25;16112096;19;129824;-43
2023/05/26 22:25:13;;;;;;;9.93;3.25;;;;;;;19.41;36.16;102776.19;16110132;19;129865;-44
2023/05/26 22:30:35;;;;;;;13.32;3.03;;;;;;;19.41;35.78;102781.75;16107682;19;130406;-43
2023/05/26 22:35:57;;;;;;;8.75;2.90;;;;;;;19.38;35.80;102778.31;16111510;19;131150;-42
2023/05/26 22:41:19;;;;;;;11.68;2.88;;;;;;;19.37;35.87;102772.97;16104504;19;129644;-42
2023/05/26 22:46:41;;;;;;;10.82;3.00;;;;;;;19.36;35.99;102779.59;16106083;19;129754;-44
2023/05/26 22:52:04;;;;;;;9.32;2.85;;;;;;;19.36;35.84;102783.22;16108230;19;129594;-43
2023/05/26 22:57:26;;;;;;;9.70;3.15;;;;;;;19.36;35.73;102780.44;16108468;19;129540;-47
2023/05/26 23:02:48;;;;;;;11.25;2.90;;;;;;;19.33;36.27;102772.50;16105579;19;130236;-45
2023/05/26 23:08:12;;;;;;;9.35;2.80;;;;;;;19.34;36.05;102774.22;16104840;19;131307;-42
2023/05/26 23:13:35;;;;;;;14.82;3.60;;;;;;;19.32;36.13;102781.06;16104998;19;129865;-45
2023/05/26 23:18:57;;;;;;;8.70;2.97;;;;;;;19.32;36.11;102783.84;16121640;19;129623;-47
2023/05/26 23:24:19;;;;;;;9.07;2.70;;;;;;;19.31;36.19;102773.78;16119122;19;129132;-44
2023/05/26 23:29:41;;;;;;;11.15;3.10;;;;;;;19.30;36.12;102769.31;16123900;19;129598;-45
2023/05/26 23:35:03;;;;;;;8.27;2.72;;;;;;;19.28;35.99;102769.53;16119900;19;131677;-46
2023/05/26 23:40:27;;;;;;;9.88;3.03;;;;;;;19.27;36.04;102766.94;16121289;19;132299;-44
2023/05/26 23:45:49;;;;;;;11.73;3.20;;;;;;;19.27;36.16;102764.16;16122721;19;129847;-44
2023/05/26 23:51:12;;;;;;;11.48;3.05;;;;;;;19.25;35.84;102761.59;16121420;19;131600;-43
2023/05/26 23:56:34;;;;;;;9.48;2.58;;;;;;;19.26;35.94;102760.53;16120363;19;130033;-45
